createdAt,value
2022-08-17T00:02:26.856Z,99705.59
2022-08-17T00:07:30.264Z,99706.45
2022-08-17T00:12:44.346Z,99699.67
2022-08-17T00:17:50.920Z,99697.75
2022-08-17T00:23:23.927Z,99693.20
2022-08-17T00:28:27.851Z,99693.70
2022-08-17T00:33:37.552Z,99687.40
2022-08-17T00:38:41.034Z,99688.44
2022-08-17T00:43:48.039Z,99692.53
2022-08-17T00:48:51.253Z,99702.75
2022-08-17T00:54:00.909Z,99705.34
2022-08-17T00:59:06.516Z,99713.02
2022-08-17T01:04:13.063Z,99714.93
2022-08-17T01:09:18.015Z,99718.20
2022-08-17T01:14:23.581Z,99715.05
2022-08-17T01:19:32.638Z,99717.70
2022-08-17T01:24:38.845Z,99719.27
2022-08-17T01:29:46.224Z,99725.83
2022-08-17T01:34:51.012Z,99729.70
2022-08-17T01:40:13.316Z,99729.36
2022-08-17T01:45:21.358Z,99729.73
2022-08-17T01:50:32.503Z,99729.21
2022-08-17T01:55:43.638Z,99731.92
2022-08-17T02:01:00.457Z,99729.17
2022-08-17T02:06:06.080Z,99732.44
2022-08-17T02:11:29.223Z,99726.83
2022-08-17T02:16:37.098Z,99725.82
2022-08-17T02:21:43.227Z,99720.23
2022-08-17T02:26:46.848Z,99721.09
2022-08-17T02:31:49.858Z,99718.02
2022-08-17T02:36:53.678Z,99714.91
2022-08-17T02:42:03.397Z,99711.69
2022-08-17T02:47:07.790Z,99710.73
2022-08-17T02:52:10.687Z,99708.21
2022-08-17T02:57:14.175Z,99712.64
2022-08-17T03:02:17.619Z,99710.16
2022-08-17T03:07:20.730Z,99708.38
2022-08-17T03:12:24.041Z,99705.09
2022-08-17T03:17:27.047Z,99707.37
2022-08-17T03:22:37.116Z,99710.91
2022-08-17T03:27:42.122Z,99716.16
2022-08-17T03:32:53.373Z,99713.81
2022-08-17T03:38:01.080Z,99718.98
2022-08-17T03:43:07.069Z,99717.77
2022-08-17T03:48:29.633Z,99717.97
2022-08-17T03:53:51.276Z,99719.21
2022-08-17T03:58:54.282Z,99726.34
2022-08-17T04:03:57.314Z,99731.13
2022-08-17T04:09:00.292Z,99736.45
2022-08-17T04:14:04.446Z,99735.82
2022-08-17T04:19:07.433Z,99739.90
2022-08-17T04:24:10.658Z,99741.44
2022-08-17T04:29:13.958Z,99737.00
2022-08-17T04:34:19.806Z,99740.16
2022-08-17T04:39:25.265Z,99739.45
2022-08-17T04:44:37.743Z,99740.13
2022-08-17T04:49:41.249Z,99739.00
2022-08-17T04:54:44.351Z,99742.00
2022-08-17T04:59:47.259Z,99742.91
2022-08-17T05:04:50.364Z,99751.90
2022-08-17T05:09:53.270Z,99751.31
2022-08-17T05:14:56.282Z,99753.33
2022-08-17T05:19:59.284Z,99768.17
2022-08-17T05:25:02.784Z,99768.19
2022-08-17T05:30:06.757Z,99771.58
2022-08-17T05:35:09.738Z,99770.91
2022-08-17T05:40:14.124Z,99770.38
2022-08-17T05:45:39.971Z,99772.97
2022-08-17T05:51:01.181Z,99769.75
2022-08-17T05:56:32.113Z,99770.29
2022-08-17T06:01:47.933Z,99771.00
2022-08-17T06:07:09.866Z,99774.70
2022-08-17T06:12:22.911Z,99774.16
2022-08-17T06:17:28.524Z,99776.07
2022-08-17T06:22:36.398Z,99780.32
2022-08-17T06:27:45.246Z,99782.71
2022-08-17T06:32:52.240Z,99788.59
2022-08-17T06:38:37.887Z,99789.84
2022-08-17T06:44:01.588Z,99792.77
2022-08-17T06:49:26.882Z,99790.52
2022-08-17T06:54:39.604Z,99791.34
2022-08-17T07:00:14.668Z,99795.33
2022-08-17T07:05:20.841Z,99792.30
2022-08-17T07:10:27.431Z,99790.76
2022-08-17T07:15:42.633Z,99797.72
2022-08-17T07:20:50.239Z,99788.77
2022-08-17T07:25:53.251Z,99790.57
2022-08-17T07:30:57.292Z,99791.38
2022-08-17T07:36:02.670Z,99793.60
2022-08-17T07:41:10.076Z,99792.91
2022-08-17T07:46:41.357Z,99793.39
2022-08-17T07:51:44.426Z,99796.69
2022-08-17T07:56:53.371Z,99795.69
2022-08-17T08:02:02.555Z,99795.58
2022-08-17T08:07:12.202Z,99795.25
2022-08-17T08:12:30.558Z,99792.50
2022-08-17T08:17:46.722Z,99788.69
2022-08-17T08:23:18.857Z,99790.39
2022-08-17T08:28:34.126Z,99790.97
2022-08-17T08:33:58.093Z,99794.38
2022-08-17T08:39:05.151Z,99794.80
2022-08-17T08:45:00.884Z,99789.58
2022-08-17T08:50:37.232Z,99788.15
2022-08-17T08:55:52.580Z,99781.92
2022-08-17T09:00:58.867Z,99781.95
2022-08-17T09:06:37.643Z,99776.86
2022-08-17T09:12:01.228Z,99780.38
2022-08-17T09:17:20.981Z,99786.29
2022-08-17T09:22:34.038Z,99781.63
2022-08-17T09:28:00.498Z,99778.02
2022-08-17T09:33:08.010Z,99779.02
2022-08-17T09:38:43.924Z,99780.34
2022-08-17T09:44:23.587Z,99785.23
2022-08-17T09:49:40.890Z,99789.91
2022-08-17T09:54:46.151Z,99790.00
2022-08-17T10:00:13.362Z,99782.56
2022-08-17T10:05:39.850Z,99782.89
2022-08-17T10:11:07.567Z,99788.79
2022-08-17T10:16:16.312Z,99785.98
2022-08-17T10:21:38.717Z,99788.06
2022-08-17T10:26:56.064Z,99787.20
2022-08-17T10:32:08.753Z,99788.98
2022-08-17T10:37:31.108Z,99783.41
2022-08-17T10:42:38.230Z,99785.33
2022-08-17T10:48:21.460Z,99786.63
2022-08-17T10:53:33.578Z,99785.34
2022-08-17T10:58:56.354Z,99784.27
2022-08-17T11:04:27.928Z,99782.04
2022-08-17T11:10:01.447Z,99776.86
2022-08-17T11:15:17.361Z,99772.59
2022-08-17T11:20:57.637Z,99773.73
2022-08-17T11:26:04.226Z,99774.20
2022-08-17T11:31:41.373Z,99767.34
2022-08-17T11:36:56.321Z,99767.50
2022-08-17T11:42:17.554Z,99769.30
2022-08-17T11:48:09.441Z,99765.39
2022-08-17T11:53:37.922Z,99770.30
2022-08-17T11:58:44.431Z,99765.48
2022-08-17T12:03:55.392Z,99767.12
2022-08-17T12:09:13.044Z,99761.23
2022-08-17T12:14:35.723Z,99763.20
2022-08-17T12:19:45.789Z,99762.48
2022-08-17T12:25:01.701Z,99766.12
2022-08-17T12:30:11.559Z,99764.76
2022-08-17T12:35:29.823Z,99768.64
2022-08-17T12:40:33.368Z,99771.88
2022-08-17T12:45:40.382Z,99777.04
2022-08-17T12:50:46.226Z,99774.95
2022-08-17T12:55:51.388Z,99778.63
2022-08-17T13:01:01.650Z,99783.09
2022-08-17T13:06:08.916Z,99780.33
2022-08-17T13:11:14.934Z,99782.77
2022-08-17T13:16:27.665Z,99777.02
2022-08-17T13:21:35.180Z,99778.25
2022-08-17T13:26:59.895Z,99771.67
2022-08-17T13:32:13.114Z,99767.24
2022-08-17T13:37:34.989Z,99765.63
2022-08-17T13:42:53.101Z,99765.88
2022-08-17T13:48:06.398Z,99761.86
2022-08-17T13:53:44.636Z,99764.92
2022-08-17T13:59:05.415Z,99765.95
2022-08-17T14:04:20.444Z,99765.73
2022-08-17T14:09:37.670Z,99759.42
2022-08-17T14:14:42.845Z,99755.00
2022-08-17T14:19:45.848Z,99754.27
2022-08-17T14:24:48.969Z,99751.80
2022-08-17T14:29:53.599Z,99755.40
2022-08-17T14:34:57.970Z,99758.61
2022-08-17T14:40:07.539Z,99761.30
2022-08-17T14:45:31.874Z,99759.91
2022-08-17T14:50:38.920Z,99753.23
2022-08-17T14:55:44.674Z,99755.95
2022-08-17T15:00:51.271Z,99759.80
2022-08-17T15:05:58.586Z,99754.02
2022-08-17T15:11:03.137Z,99758.09
2022-08-17T15:16:08.788Z,99760.63
2022-08-17T15:21:11.900Z,99760.86
2022-08-17T15:26:17.567Z,99759.77
2022-08-17T15:31:20.682Z,99756.74
2022-08-17T15:36:36.012Z,99750.80
2022-08-17T15:41:42.051Z,99752.30
2022-08-17T15:46:45.061Z,99751.33
2022-08-17T15:51:49.196Z,99751.78
2022-08-17T15:56:52.198Z,99752.71
2022-08-17T16:03:16.133Z,99758.45
2022-08-17T16:07:26.473Z,99761.45
2022-08-17T16:12:29.987Z,99763.81
2022-08-17T16:17:40.029Z,99760.16
2022-08-17T16:22:46.097Z,99767.80
2022-08-17T16:27:53.626Z,99775.41
2022-08-17T16:32:59.842Z,99778.10
2022-08-17T16:38:03.123Z,99783.55
2022-08-17T16:43:10.817Z,99774.02
2022-08-17T16:48:15.813Z,99778.75
2022-08-17T16:53:19.490Z,99780.98
2022-08-17T16:58:22.888Z,99778.98
2022-08-17T17:03:27.862Z,99783.27
2022-08-17T17:08:38.446Z,99789.83
2022-08-17T17:13:49.382Z,99793.94
2022-08-17T17:19:08.370Z,99793.14
2022-08-17T17:24:18.446Z,99800.97
2022-08-17T17:29:48.085Z,99805.35
2022-08-17T17:34:59.986Z,99802.27
2022-08-17T17:40:23.123Z,99807.77
2022-08-17T17:45:35.997Z,99809.61
2022-08-17T17:50:49.331Z,99816.11
2022-08-17T17:56:39.234Z,99822.17
2022-08-17T18:02:36.639Z,99827.17
2022-08-17T18:07:44.540Z,99833.42
2022-08-17T18:12:55.459Z,99833.58
2022-08-17T18:18:20.067Z,99842.54
2022-08-17T18:23:27.902Z,99845.30
2022-08-17T18:28:39.891Z,99849.20
2022-08-17T18:33:49.354Z,99859.22
2022-08-17T18:39:15.507Z,99862.44
2022-08-17T18:44:32.729Z,99865.16
2022-08-17T18:49:36.382Z,99856.98
2022-08-17T18:54:39.790Z,99863.61
2022-08-17T18:59:48.377Z,99869.42
2022-08-17T19:05:02.902Z,99870.07
2022-08-17T19:10:46.342Z,99872.45
2022-08-17T19:16:15.935Z,99876.86
2022-08-17T19:21:30.570Z,99889.10
2022-08-17T19:26:54.246Z,99897.60
2022-08-17T19:32:02.753Z,99894.03
2022-08-17T19:37:24.332Z,99896.09
2022-08-17T19:42:33.002Z,99892.98
2022-08-17T19:48:03.410Z,99897.34
2022-08-17T19:53:20.763Z,99912.86
2022-08-17T19:58:42.514Z,99919.59
2022-08-17T20:04:00.468Z,99927.02
2022-08-17T20:09:29.665Z,99938.08
2022-08-17T20:15:04.336Z,99945.02
2022-08-17T20:20:41.960Z,99947.45
2022-08-17T20:26:03.682Z,99946.55
2022-08-17T20:31:41.012Z,99939.91
2022-08-17T20:37:13.840Z,99946.50
2022-08-17T20:42:22.772Z,99948.25
2022-08-17T20:47:32.734Z,99944.69
2022-08-17T20:52:48.034Z,99945.38
2022-08-17T20:57:51.205Z,99946.69
2022-08-17T21:03:22.940Z,99952.02
2022-08-17T21:08:58.080Z,99952.00
2022-08-17T21:14:08.687Z,99947.67
2022-08-17T21:19:30.948Z,99954.09
2022-08-17T21:25:17.288Z,99955.88
2022-08-17T21:30:29.685Z,99963.16
2022-08-17T21:35:47.409Z,99968.77
2022-08-17T21:40:53.503Z,99963.27
2022-08-17T21:46:10.944Z,99964.42
2022-08-17T21:51:19.724Z,99971.37
2022-08-17T21:56:36.478Z,99960.47
2022-08-17T22:01:43.307Z,99952.73
2022-08-17T22:06:52.502Z,99944.54
2022-08-17T22:12:09.390Z,99945.67
2022-08-17T22:17:23.358Z,99937.31
2022-08-17T22:22:32.816Z,99931.11
2022-08-17T22:27:52.106Z,99926.70
2022-08-17T22:32:55.950Z,99923.35
2022-08-17T22:38:19.080Z,99924.05
2022-08-17T22:43:26.145Z,99922.22
2022-08-17T22:48:31.277Z,99927.36
2022-08-17T22:53:54.551Z,99932.46
2022-08-17T22:59:18.547Z,99934.91
2022-08-17T23:04:33.333Z,99940.92
2022-08-17T23:09:36.979Z,99939.16
2022-08-17T23:14:45.811Z,99942.36
2022-08-17T23:19:48.803Z,99942.99
2022-08-17T23:24:52.012Z,99935.20
2022-08-17T23:29:55.969Z,99935.60
2022-08-17T23:34:59.295Z,99935.89
2022-08-17T23:40:06.503Z,99936.20
2022-08-17T23:45:10.299Z,99935.13
2022-08-17T23:50:16.670Z,99940.35
2022-08-17T23:55:20.085Z,99948.45
